Time;durP1;ratioP1;P1;durP2;ratioP2;P2;SDS_P1;SDS_P2;PMS_P1;PMS_P2;Temp;Humidity;BMP_temperature;BMP_pressure;BME280_temperature;BME280_humidity;BME280_pressure;Samples;Min_cycle;Max_cycle;Signal;HPM_P1;HPM_P2
2022/01/27 00:00:26;;;;;;;26.80;8.30;;;;;;;;;;4977294;28;20541;-69
2022/01/27 00:05:16;;;;;;;24.67;7.83;;;;;;;;;;4973709;28;20234;-69
2022/01/27 00:07:43;;;;;;;24.73;8.00;;;;;;;;;;4965705;28;20478;-69
2022/01/27 00:10:25;;;;;;;27.77;10.93;;;;;;;;;;4979233;28;21303;-69
2022/01/27 00:12:56;;;;;;;28.37;10.20;;;;;;;;;;4977867;28;20462;-69
2022/01/27 00:15:29;;;;;;;39.77;11.80;;;;;;;;;;4972458;28;20714;-69
2022/01/27 00:18:00;;;;;;;34.87;11.87;;;;;;;;;;4979764;28;20455;-69
2022/01/27 00:20:27;;;;;;;39.17;12.50;;;;;;;;;;4976286;28;20521;-69
2022/01/27 00:22:54;;;;;;;25.83;9.50;;;;;;;;;;4975305;28;20883;-69
2022/01/27 00:25:21;;;;;;;34.13;12.63;;;;;;;;;;4969391;28;20505;-69
2022/01/27 00:27:47;;;;;;;34.47;11.37;;;;;;;;;;4982388;28;20454;-69
2022/01/27 00:30:14;;;;;;;41.27;13.53;;;;;;;;;;4974949;28;20460;-69
2022/01/27 00:32:41;;;;;;;39.70;14.30;;;;;;;;;;4979226;28;20236;-68
2022/01/27 00:35:08;;;;;;;33.50;11.27;;;;;;;;;;4940643;28;20227;-68
2022/01/27 00:37:34;;;;;;;41.50;12.57;;;;;;;;;;4975542;28;20236;-68
2022/01/27 00:40:02;;;;;;;35.50;11.23;;;;;;;;;;4964730;28;20549;-68
2022/01/27 00:42:30;;;;;;;33.83;11.00;;;;;;;;;;4978450;28;20557;-68
2022/01/27 00:44:58;;;;;;;27.07;8.00;;;;;;;;;;4978456;28;20968;-69
2022/01/27 00:47:24;;;;;;;18.57;6.83;;;;;;;;;;4957576;28;20474;-69
2022/01/27 00:49:51;;;;;;;33.90;9.03;;;;;;;;;;4979938;28;20485;-69
2022/01/27 00:52:27;;;;;;;33.40;11.43;;;;;;;;;;4973802;28;20454;-68
2022/01/27 00:54:54;;;;;;;34.77;11.10;;;;;;;;;;4976563;28;20459;-68
2022/01/27 00:57:37;;;;;;;39.63;10.70;;;;;;;;;;4974732;28;20475;-68
2022/01/27 01:00:04;;;;;;;17.90;6.40;;;;;;;;;;4978460;28;20454;-68
2022/01/27 01:39:57;;;;;;;22.33;7.67;;;;;;;;;;4968143;28;20540;-68
2022/01/27 01:42:24;;;;;;;20.77;7.53;;;;;;;;;;4976517;28;20458;-68
2022/01/27 01:44:50;;;;;;;24.73;8.90;;;;;;;;;;4957995;28;20651;-69
2022/01/27 01:47:20;;;;;;;27.40;9.60;;;;;;;;;;4978345;28;20459;-68
2022/01/27 01:49:46;;;;;;;28.60;9.60;;;;;;;;;;4979095;28;20268;-68
2022/01/27 01:52:13;;;;;;;27.97;9.87;;;;;;;;;;4972035;28;20455;-68
2022/01/27 01:54:39;;;;;;;30.80;10.47;;;;;;;;;;4977913;28;20479;-69
2022/01/27 01:57:06;;;;;;;30.83;9.40;;;;;;;;;;4963122;28;20463;-68
2022/01/27 01:59:35;;;;;;;14.73;6.50;;;;;;;;;;4965650;28;20843;-68
2022/01/27 02:02:02;;;;;;;22.97;10.90;;;;;;;;;;4966857;28;20452;-69
2022/01/27 02:04:29;;;;;;;26.93;10.27;;;;;;;;;;4976535;28;20459;-68
2022/01/27 02:06:59;;;;;;;35.10;10.07;;;;;;;;;;4972286;28;20282;-69
2022/01/27 02:20:14;;;;;;;23.33;9.50;;;;;;;;;;4980520;28;20450;-69
2022/01/27 02:22:41;;;;;;;27.83;10.43;;;;;;;;;;4976243;28;20478;-68
2022/01/27 02:25:08;;;;;;;31.50;8.43;;;;;;;;;;4975674;28;20465;-68
2022/01/27 02:27:34;;;;;;;25.37;9.57;;;;;;;;;;4982395;28;20375;-68
2022/01/27 02:30:01;;;;;;;27.83;11.70;;;;;;;;;;4979701;28;20529;-68
2022/01/27 02:32:27;;;;;;;27.27;10.40;;;;;;;;;;4982211;28;20490;-68
2022/01/27 02:34:54;;;;;;;15.43;6.77;;;;;;;;;;4977146;28;20254;-69
2022/01/27 02:37:21;;;;;;;24.17;9.33;;;;;;;;;;4964014;28;20259;-68
2022/01/27 02:39:47;;;;;;;19.93;8.13;;;;;;;;;;4977630;28;20463;-68
2022/01/27 02:42:20;;;;;;;27.13;10.00;;;;;;;;;;4981437;28;21043;-69
2022/01/27 02:44:47;;;;;;;28.77;9.83;;;;;;;;;;4974890;28;20455;-68
2022/01/27 02:47:14;;;;;;;15.97;6.33;;;;;;;;;;4979173;28;20466;-68
2022/01/27 02:49:41;;;;;;;30.23;11.10;;;;;;;;;;4958366;28;20240;-68
2022/01/27 02:52:08;;;;;;;22.73;9.73;;;;;;;;;;4954245;28;20836;-68
2022/01/27 02:54:34;;;;;;;29.93;10.67;;;;;;;;;;4956571;28;20229;-68
2022/01/27 02:57:20;;;;;;;26.03;10.03;;;;;;;;;;4949752;28;23632;-69
2022/01/27 02:59:47;;;;;;;31.93;11.03;;;;;;;;;;4965110;28;20939;-68
2022/01/27 03:02:15;;;;;;;27.47;9.37;;;;;;;;;;4960702;28;20546;-68
2022/01/27 03:04:41;;;;;;;22.07;8.97;;;;;;;;;;4956699;28;21084;-68
2022/01/27 03:07:08;;;;;;;27.43;10.27;;;;;;;;;;4954189;28;20464;-68
2022/01/27 03:09:36;;;;;;;25.37;11.00;;;;;;;;;;4959808;28;20954;-69
2022/01/27 03:12:06;;;;;;;30.37;11.80;;;;;;;;;;4954894;28;20688;-68
2022/01/27 03:14:33;;;;;;;21.17;8.17;;;;;;;;;;4936983;28;20230;-68
2022/01/27 03:17:00;;;;;;;29.77;10.13;;;;;;;;;;4959485;28;20560;-68
2022/01/27 03:19:27;;;;;;;23.27;9.73;;;;;;;;;;4914860;28;20457;-68
2022/01/27 03:21:54;;;;;;;15.70;6.77;;;;;;;;;;4962745;28;20237;-68
2022/01/27 03:24:24;;;;;;;27.27;10.83;;;;;;;;;;4957469;28;20552;-68
2022/01/27 03:26:51;;;;;;;26.53;11.07;;;;;;;;;;4959985;28;20241;-68
2022/01/27 03:29:18;;;;;;;23.70;10.20;;;;;;;;;;4960443;28;20482;-68
2022/01/27 03:31:45;;;;;;;20.43;8.43;;;;;;;;;;4962513;28;20455;-68
2022/01/27 03:34:11;;;;;;;18.77;6.73;;;;;;;;;;4964528;28;20256;-68
2022/01/27 03:36:38;;;;;;;22.83;10.03;;;;;;;;;;4950979;28;20316;-69
2022/01/27 03:39:05;;;;;;;17.77;6.70;;;;;;;;;;4963254;28;20460;-69
2022/01/27 03:41:32;;;;;;;24.10;10.00;;;;;;;;;;4981519;28;20555;-70
2022/01/27 03:43:59;;;;;;;26.77;9.83;;;;;;;;;;4979681;28;23607;-69
2022/01/27 03:46:25;;;;;;;24.53;9.93;;;;;;;;;;4950045;28;20228;-69
2022/01/27 03:48:52;;;;;;;27.53;10.80;;;;;;;;;;4965560;28;20447;-70
2022/01/27 03:51:19;;;;;;;21.87;9.03;;;;;;;;;;4973983;28;20599;-69
2022/01/27 03:53:46;;;;;;;26.57;9.47;;;;;;;;;;4975938;28;20513;-69
2022/01/27 03:56:13;;;;;;;17.10;7.27;;;;;;;;;;4971921;28;20236;-69
2022/01/27 03:58:39;;;;;;;17.17;6.90;;;;;;;;;;4982751;28;20455;-69
2022/01/27 04:01:06;;;;;;;23.90;9.97;;;;;;;;;;4981140;28;20459;-69
2022/01/27 04:03:35;;;;;;;32.13;11.57;;;;;;;;;;4980543;28;20258;-70
2022/01/27 04:06:09;;;;;;;29.23;11.83;;;;;;;;;;4977914;28;20307;-69
2022/01/27 04:08:37;;;;;;;19.10;7.93;;;;;;;;;;4968212;28;20240;-69
2022/01/27 04:11:04;;;;;;;27.63;12.17;;;;;;;;;;4976564;28;21234;-69
2022/01/27 04:13:31;;;;;;;19.67;8.37;;;;;;;;;;4978191;28;20482;-69
2022/01/27 04:15:58;;;;;;;22.27;9.40;;;;;;;;;;4974576;28;20548;-69
2022/01/27 04:18:24;;;;;;;27.27;10.97;;;;;;;;;;4961247;28;20236;-69
2022/01/27 04:20:51;;;;;;;24.33;9.63;;;;;;;;;;4978277;28;20229;-69
2022/01/27 04:23:18;;;;;;;23.53;10.97;;;;;;;;;;4972979;28;20452;-70
2022/01/27 04:25:45;;;;;;;24.77;11.53;;;;;;;;;;4973329;28;20807;-69
2022/01/27 04:28:16;;;;;;;28.07;11.80;;;;;;;;;;4957780;28;20460;-70
2022/01/27 04:30:43;;;;;;;18.73;7.93;;;;;;;;;;4967046;28;20455;-69
2022/01/27 04:33:09;;;;;;;26.70;10.73;;;;;;;;;;4951736;28;20331;-69
2022/01/27 04:35:42;;;;;;;17.97;8.50;;;;;;;;;;4958266;28;20688;-69
2022/01/27 04:38:20;;;;;;;24.40;8.90;;;;;;;;;;4955921;28;20466;-69
2022/01/27 04:40:56;;;;;;;24.70;9.77;;;;;;;;;;4956791;28;20471;-69
2022/01/27 04:43:40;;;;;;;16.63;7.27;;;;;;;;;;4957822;28;20251;-70
2022/01/27 04:48:54;;;;;;;24.17;9.77;;;;;;;;;;4957812;28;31488;-70
2022/01/27 04:51:23;;;;;;;20.53;8.47;;;;;;;;;;4956105;28;20235;-69
2022/01/27 04:56:21;;;;;;;16.23;7.80;;;;;;;;;;4952725;28;21629;-70
2022/01/27 04:58:53;;;;;;;16.10;6.73;;;;;;;;;;4928859;28;20495;-69
2022/01/27 05:01:24;;;;;;;13.93;7.70;;;;;;;;;;4942135;28;20468;-70
2022/01/27 05:03:59;;;;;;;13.63;6.43;;;;;;;;;;4935927;28;20506;-70
2022/01/27 05:06:26;;;;;;;22.80;9.70;;;;;;;;;;4928385;28;20519;-70
2022/01/27 05:08:53;;;;;;;14.90;7.40;;;;;;;;;;4939332;28;218162;-69
2022/01/27 05:11:26;;;;;;;14.70;6.03;;;;;;;;;;4944156;28;20667;-70
2022/01/27 05:16:43;;;;;;;22.07;10.40;;;;;;;;;;4939583;28;20688;-70
2022/01/27 05:19:10;;;;;;;20.07;8.97;;;;;;;;;;4937164;28;20470;-68
2022/01/27 05:21:37;;;;;;;18.33;8.27;;;;;;;;;;4931271;28;20512;-69
2022/01/27 05:24:04;;;;;;;21.27;7.63;;;;;;;;;;4946456;28;20467;-70
2022/01/27 05:26:32;;;;;;;15.97;7.50;;;;;;;;;;4933219;28;20476;-69
2022/01/27 05:28:58;;;;;;;11.90;5.37;;;;;;;;;;4942341;28;20304;-70
2022/01/27 05:31:25;;;;;;;20.07;9.37;;;;;;;;;;4928029;28;20304;-70
2022/01/27 05:33:52;;;;;;;14.00;6.57;;;;;;;;;;4942592;28;20225;-70
2022/01/27 05:36:20;;;;;;;16.53;7.43;;;;;;;;;;4957048;28;21124;-69
2022/01/27 05:38:46;;;;;;;18.87;8.03;;;;;;;;;;4946572;28;20469;-69
2022/01/27 05:41:14;;;;;;;23.37;11.50;;;;;;;;;;4952875;28;20532;-70
2022/01/27 05:43:41;;;;;;;18.27;8.27;;;;;;;;;;4966531;28;20290;-69
2022/01/27 05:46:08;;;;;;;27.60;11.73;;;;;;;;;;4967016;28;21186;-70
2022/01/27 05:48:35;;;;;;;20.80;9.63;;;;;;;;;;4971459;28;20533;-70
2022/01/27 05:51:01;;;;;;;18.77;7.60;;;;;;;;;;4968965;28;33355;-67
2022/01/27 05:53:30;;;;;;;33.13;13.37;;;;;;;;;;4944547;28;33809;-71
2022/01/27 05:55:57;;;;;;;29.60;11.83;;;;;;;;;;4974833;28;20474;-72
2022/01/27 05:58:25;;;;;;;28.07;11.93;;;;;;;;;;4973337;28;20294;-71
2022/01/27 06:00:52;;;;;;;25.00;9.47;;;;;;;;;;4981474;28;20534;-69
2022/01/27 06:03:19;;;;;;;23.67;10.53;;;;;;;;;;4983822;28;20687;-69
2022/01/27 06:05:45;;;;;;;32.53;13.70;;;;;;;;;;4985062;28;20541;-69
2022/01/27 06:08:12;;;;;;;29.67;13.43;;;;;;;;;;4982398;28;20259;-69
2022/01/27 06:10:38;;;;;;;32.07;12.23;;;;;;;;;;4983463;28;20456;-69
2022/01/27 06:13:05;;;;;;;22.87;9.13;;;;;;;;;;4978252;28;20346;-69
2022/01/27 06:15:31;;;;;;;17.67;7.90;;;;;;;;;;4985545;28;20455;-69
2022/01/27 06:17:59;;;;;;;21.33;8.17;;;;;;;;;;4983665;28;21040;-69
2022/01/27 06:20:28;;;;;;;32.43;12.27;;;;;;;;;;4984264;28;20455;-69
2022/01/27 06:22:58;;;;;;;30.13;11.90;;;;;;;;;;4965014;28;219827;-68
2022/01/27 06:25:30;;;;;;;23.87;10.17;;;;;;;;;;4997393;28;21105;-69
2022/01/27 06:27:57;;;;;;;27.67;12.40;;;;;;;;;;4976444;28;25836;-68
2022/01/27 06:30:24;;;;;;;24.37;10.17;;;;;;;;;;4974168;28;20469;-68
2022/01/27 06:32:50;;;;;;;24.80;10.13;;;;;;;;;;4963631;28;20463;-68
2022/01/27 06:35:17;;;;;;;19.87;8.57;;;;;;;;;;4978356;28;20651;-68
2022/01/27 06:37:45;;;;;;;26.13;10.47;;;;;;;;;;4965109;28;20232;-68
2022/01/27 06:40:14;;;;;;;24.30;10.07;;;;;;;;;;4971721;28;20249;-68
2022/01/27 06:42:41;;;;;;;19.90;8.67;;;;;;;;;;4910894;28;20456;-69
2022/01/27 06:45:08;;;;;;;27.13;11.20;;;;;;;;;;4938284;28;20464;-69
2022/01/27 06:47:34;;;;;;;11.67;4.23;;;;;;;;;;4940003;28;20869;-69
2022/01/27 06:50:01;;;;;;;20.90;8.80;;;;;;;;;;4939771;28;20464;-69
2022/01/27 06:52:28;;;;;;;22.23;8.67;;;;;;;;;;4939492;28;20558;-68
2022/01/27 06:54:55;;;;;;;23.77;10.30;;;;;;;;;;4939421;28;20229;-69
2022/01/27 06:57:22;;;;;;;16.60;5.80;;;;;;;;;;4939565;28;20472;-69
2022/01/27 06:59:49;;;;;;;23.43;9.00;;;;;;;;;;4933797;28;20226;-69
2022/01/27 07:02:16;;;;;;;23.23;9.67;;;;;;;;;;4925375;28;20543;-69
2022/01/27 07:04:43;;;;;;;27.30;11.70;;;;;;;;;;4939811;28;20237;-68
2022/01/27 07:07:09;;;;;;;23.60;10.57;;;;;;;;;;4937448;28;20472;-68
2022/01/27 07:09:36;;;;;;;18.57;9.07;;;;;;;;;;4937251;28;20613;-69
2022/01/27 07:12:03;;;;;;;17.90;8.37;;;;;;;;;;4939925;28;20464;-69
2022/01/27 07:14:32;;;;;;;13.30;5.87;;;;;;;;;;4938908;28;27147;-69
2022/01/27 07:17:00;;;;;;;18.40;9.73;;;;;;;;;;4939830;28;20549;-69
2022/01/27 07:19:27;;;;;;;14.70;5.87;;;;;;;;;;4939934;28;20551;-68
2022/01/27 07:21:54;;;;;;;14.90;6.20;;;;;;;;;;4949006;28;20504;-70
2022/01/27 07:24:21;;;;;;;13.60;6.77;;;;;;;;;;4944308;28;21291;-69
2022/01/27 07:26:48;;;;;;;11.27;5.43;;;;;;;;;;4951635;28;20479;-69
2022/01/27 07:29:15;;;;;;;13.77;5.63;;;;;;;;;;4958435;28;80229;-69
2022/01/27 07:31:42;;;;;;;18.43;8.13;;;;;;;;;;4960264;28;21493;-69
2022/01/27 07:34:10;;;;;;;9.83;4.23;;;;;;;;;;4972504;28;34797;-70
2022/01/27 07:36:40;;;;;;;8.27;4.00;;;;;;;;;;4950705;28;20893;-69
2022/01/27 07:39:13;;;;;;;11.63;5.00;;;;;;;;;;4968973;28;32437;-68
2022/01/27 07:41:43;;;;;;;43.47;4.97;;;;;;;;;;4966239;28;28061;-69
2022/01/27 07:44:10;;;;;;;11.53;5.20;;;;;;;;;;4967636;28;20470;-69
2022/01/27 07:46:44;;;;;;;10.20;4.70;;;;;;;;;;4952154;28;67426;-69
2022/01/27 07:49:12;;;;;;;8.47;4.23;;;;;;;;;;4941888;28;98322;-69
2022/01/27 07:51:39;;;;;;;12.90;4.70;;;;;;;;;;4953973;28;140622;-69
2022/01/27 07:54:10;;;;;;;10.33;4.47;;;;;;;;;;4956762;28;36544;-69
2022/01/27 07:56:37;;;;;;;13.70;4.60;;;;;;;;;;4958107;28;52243;-69
2022/01/27 07:59:04;;;;;;;7.73;3.43;;;;;;;;;;4948907;28;62626;-69
2022/01/27 08:01:31;;;;;;;9.60;3.90;;;;;;;;;;4959846;28;20322;-69
2022/01/27 08:04:00;;;;;;;7.00;3.07;;;;;;;;;;4968402;28;20472;-69
2022/01/27 08:06:26;;;;;;;7.40;3.37;;;;;;;;;;4967237;28;20456;-69
2022/01/27 08:08:53;;;;;;;5.33;2.93;;;;;;;;;;4973746;28;20612;-69
2022/01/27 08:11:20;;;;;;;6.57;2.57;;;;;;;;;;4969765;28;20467;-69
2022/01/27 08:13:47;;;;;;;4.37;2.37;;;;;;;;;;4971369;28;30040;-68
2022/01/27 08:16:14;;;;;;;4.83;1.90;;;;;;;;;;4964556;28;20586;-68
2022/01/27 08:18:48;;;;;;;10.03;3.87;;;;;;;;;;4970344;28;20471;-68
2022/01/27 08:21:15;;;;;;;4.67;2.47;;;;;;;;;;4966773;28;27296;-68
2022/01/27 08:23:43;;;;;;;2.57;1.23;;;;;;;;;;4961516;28;20243;-68
2022/01/27 08:26:13;;;;;;;6.53;2.53;;;;;;;;;;4964143;28;20470;-68
2022/01/27 08:28:49;;;;;;;4.87;2.70;;;;;;;;;;4966753;28;20234;-69
2022/01/27 08:31:17;;;;;;;6.83;3.13;;;;;;;;;;4963714;28;27628;-70
2022/01/27 08:33:44;;;;;;;6.83;2.03;;;;;;;;;;4970914;28;20456;-68
2022/01/27 08:36:11;;;;;;;4.27;2.20;;;;;;;;;;4959773;28;20462;-68
2022/01/27 08:38:58;;;;;;;3.77;2.67;;;;;;;;;;4952395;28;20467;-69
2022/01/27 08:41:43;;;;;;;4.10;2.10;;;;;;;;;;4949480;28;20478;-68
2022/01/27 08:44:10;;;;;;;3.63;2.30;;;;;;;;;;4944943;28;25092;-69
2022/01/27 08:46:37;;;;;;;4.40;2.20;;;;;;;;;;4941023;28;20486;-69
2022/01/27 08:49:05;;;;;;;2.77;1.93;;;;;;;;;;4964073;28;27333;-70
2022/01/27 08:51:32;;;;;;;4.20;2.50;;;;;;;;;;4948733;28;213742;-69
2022/01/27 08:53:59;;;;;;;1.87;1.17;;;;;;;;;;4955278;28;20228;-68
2022/01/27 08:56:26;;;;;;;3.00;1.60;;;;;;;;;;4966405;28;20464;-69
2022/01/27 08:58:54;;;;;;;3.17;1.60;;;;;;;;;;4976731;28;20442;-68
2022/01/27 09:01:23;;;;;;;3.07;1.57;;;;;;;;;;4961586;28;43991;-68
2022/01/27 09:03:50;;;;;;;2.90;1.70;;;;;;;;;;4965977;28;20453;-68
2022/01/27 09:06:19;;;;;;;1.10;0.90;;;;;;;;;;4961327;28;20458;-68
2022/01/27 09:08:46;;;;;;;1.90;0.83;;;;;;;;;;4962587;28;20459;-68
2022/01/27 09:11:13;;;;;;;2.30;1.30;;;;;;;;;;4958477;28;21010;-68
2022/01/27 09:13:39;;;;;;;1.33;1.10;;;;;;;;;;4950845;28;20467;-69
2022/01/27 09:16:07;;;;;;;1.03;0.73;;;;;;;;;;4974141;28;20219;-69
2022/01/27 09:18:34;;;;;;;1.40;0.90;;;;;;;;;;4944561;28;20238;-68
2022/01/27 09:21:09;;;;;;;2.87;1.00;;;;;;;;;;4971210;28;20459;-69
2022/01/27 09:23:36;;;;;;;1.20;0.40;;;;;;;;;;4959850;28;20582;-68
2022/01/27 09:26:07;;;;;;;0.90;0.50;;;;;;;;;;4964843;28;21046;-68
2022/01/27 09:28:34;;;;;;;1.40;1.03;;;;;;;;;;4971616;28;20678;-67
2022/01/27 09:31:01;;;;;;;1.17;0.77;;;;;;;;;;4974224;28;20480;-67
2022/01/27 09:33:29;;;;;;;0.87;0.63;;;;;;;;;;4964182;28;20453;-69
2022/01/27 09:35:56;;;;;;;3.70;1.40;;;;;;;;;;4967436;28;21401;-69
2022/01/27 09:38:23;;;;;;;2.13;1.63;;;;;;;;;;4960340;28;20451;-67
2022/01/27 09:40:51;;;;;;;1.63;1.23;;;;;;;;;;4973913;28;20500;-71
2022/01/27 09:43:19;;;;;;;2.50;1.47;;;;;;;;;;4962042;28;25674;-68
2022/01/27 09:45:46;;;;;;;1.13;0.90;;;;;;;;;;4964515;28;20471;-69
2022/01/27 09:48:16;;;;;;;1.90;0.70;;;;;;;;;;4961833;28;22592;-67
2022/01/27 09:51:20;;;;;;;1.33;0.90;;;;;;;;;;4950307;28;20502;-69
2022/01/27 09:53:36;;;;;;;2.13;1.23;;;;;;;;;;4959587;28;20938;-68
2022/01/27 09:56:03;;;;;;;2.20;0.93;;;;;;;;;;4945101;28;21015;-68
2022/01/27 09:58:43;;;;;;;1.93;1.30;;;;;;;;;;4962567;28;20454;-69
2022/01/27 10:01:09;;;;;;;1.17;1.00;;;;;;;;;;4972031;28;20461;-66
2022/01/27 10:03:56;;;;;;;1.23;0.87;;;;;;;;;;4960098;28;20459;-67
2022/01/27 10:06:31;;;;;;;5.03;1.90;;;;;;;;;;4968720;28;20601;-67
2022/01/27 10:09:16;;;;;;;2.00;1.00;;;;;;;;;;4952450;28;20233;-69
2022/01/27 10:11:45;;;;;;;2.87;1.40;;;;;;;;;;4958649;28;31974;-69
2022/01/27 10:14:23;;;;;;;2.50;1.13;;;;;;;;;;4953798;28;20470;-67
2022/01/27 10:16:52;;;;;;;2.97;1.60;;;;;;;;;;4965764;28;20443;-69
2022/01/27 10:19:19;;;;;;;1.63;1.00;;;;;;;;;;4966441;28;20475;-68
2022/01/27 10:21:47;;;;;;;2.37;1.67;;;;;;;;;;4964875;28;20220;-66
2022/01/27 10:24:27;;;;;;;2.93;1.53;;;;;;;;;;4975866;28;20531;-68
2022/01/27 10:27:17;;;;;;;1.60;1.20;;;;;;;;;;4926188;28;215208;-68
2022/01/27 10:32:39;;;;;;;3.00;1.60;;;;;;;;;;4945124;28;20459;-68
2022/01/27 10:35:07;;;;;;;2.47;1.70;;;;;;;;;;4947235;28;24096;-69
2022/01/27 10:37:53;;;;;;;2.77;1.93;;;;;;;;;;4956399;28;24307;-67
2022/01/27 10:40:21;;;;;;;2.83;2.03;;;;;;;;;;4965177;28;20454;-69
2022/01/27 10:43:04;;;;;;;4.90;2.03;;;;;;;;;;4979096;28;20228;-68
2022/01/27 10:45:32;;;;;;;3.83;2.13;;;;;;;;;;4948887;28;20235;-69
2022/01/27 10:48:07;;;;;;;4.10;2.40;;;;;;;;;;4961190;28;20244;-67
2022/01/27 10:50:49;;;;;;;4.20;1.93;;;;;;;;;;4961477;28;20240;-67
2022/01/27 10:53:18;;;;;;;3.83;2.00;;;;;;;;;;4794427;28;5094602;-67
2022/01/27 10:56:01;;;;;;;2.57;1.20;;;;;;;;;;4975685;28;20244;-68
2022/01/27 10:58:28;;;;;;;5.13;2.23;;;;;;;;;;4971605;28;20451;-69
2022/01/27 11:00:56;;;;;;;3.50;1.50;;;;;;;;;;4939172;28;31225;-71
2022/01/27 11:03:24;;;;;;;3.73;1.90;;;;;;;;;;4895009;28;20785;-66
2022/01/27 11:05:59;;;;;;;4.80;2.60;;;;;;;;;;4976581;28;31834;-65
2022/01/27 11:08:26;;;;;;;2.80;1.70;;;;;;;;;;4940468;28;20970;-67
2022/01/27 11:10:53;;;;;;;2.63;1.67;;;;;;;;;;4932088;28;20599;-68
2022/01/27 11:13:23;;;;;;;2.83;1.30;;;;;;;;;;4964687;28;39060;-67
2022/01/27 11:15:52;;;;;;;3.60;2.60;;;;;;;;;;4970013;28;20469;-66
2022/01/27 11:18:21;;;;;;;4.20;2.30;;;;;;;;;;4968874;28;20294;-67
2022/01/27 11:20:53;;;;;;;2.57;1.40;;;;;;;;;;4968207;28;20238;-67
2022/01/27 11:23:47;;;;;;;1.73;0.93;;;;;;;;;;4976298;28;20287;-66
2022/01/27 11:26:13;;;;;;;2.87;1.70;;;;;;;;;;4920447;28;20454;-66
2022/01/27 11:28:41;;;;;;;1.57;1.07;;;;;;;;;;4966689;28;32559;-67
2022/01/27 11:31:27;;;;;;;1.93;1.30;;;;;;;;;;4965586;28;20236;-66
2022/01/27 11:34:01;;;;;;;1.97;1.17;;;;;;;;;;4971843;28;20281;-67
2022/01/27 11:36:29;;;;;;;4.47;1.20;;;;;;;;;;4784393;28;5090998;-66
2022/01/27 11:38:57;;;;;;;2.30;1.57;;;;;;;;;;4970553;28;20264;-66
2022/01/27 11:41:42;;;;;;;1.53;1.00;;;;;;;;;;4963409;28;36189;-67
2022/01/27 11:44:37;;;;;;;2.43;1.17;;;;;;;;;;4941667;28;20247;-67
2022/01/27 11:47:10;;;;;;;5.43;1.30;;;;;;;;;;4956624;28;20273;-66
2022/01/27 11:49:53;;;;;;;1.33;0.90;;;;;;;;;;4965247;28;20504;-67
2022/01/27 11:52:21;;;;;;;2.77;1.70;;;;;;;;;;4971966;28;20471;-68
2022/01/27 11:54:49;;;;;;;2.33;1.30;;;;;;;;;;4943988;28;20236;-69
2022/01/27 11:57:36;;;;;;;4.40;2.10;;;;;;;;;;4969538;28;20479;-67
2022/01/27 12:00:12;;;;;;;2.63;1.30;;;;;;;;;;4962813;28;20577;-69
2022/01/27 12:02:58;;;;;;;3.80;1.70;;;;;;;;;;4941225;28;30866;-68
2022/01/27 12:05:26;;;;;;;1.63;1.17;;;;;;;;;;4945173;28;20483;-67
2022/01/27 12:08:11;;;;;;;3.40;1.80;;;;;;;;;;4946526;28;20471;-67
2022/01/27 12:10:57;;;;;;;4.47;2.93;;;;;;;;;;4787178;28;5091572;-68
2022/01/27 12:19:00;;;;;;;6.73;1.70;;;;;;;;;;4963803;28;20509;-70
2022/01/27 12:21:50;;;;;;;4.37;2.10;;;;;;;;;;4971701;28;20455;-69
2022/01/27 12:24:39;;;;;;;2.43;1.33;;;;;;;;;;4949736;28;20310;-69
2022/01/27 12:27:06;;;;;;;2.77;0.87;;;;;;;;;;4965371;28;20244;-70
2022/01/27 12:29:34;;;;;;;1.97;1.00;;;;;;;;;;4964529;28;20467;-68
2022/01/27 12:32:01;;;;;;;1.77;1.23;;;;;;;;;;4924758;28;20820;-68
2022/01/27 12:34:28;;;;;;;1.57;0.97;;;;;;;;;;4971136;28;24992;-68
2022/01/27 12:36:56;;;;;;;2.47;1.43;;;;;;;;;;4959605;28;20302;-69
2022/01/27 12:39:23;;;;;;;0.53;0.40;;;;;;;;;;4963699;28;20294;-68
2022/01/27 12:41:50;;;;;;;2.50;1.40;;;;;;;;;;4972307;28;20463;-68
2022/01/27 12:44:17;;;;;;;3.23;1.53;;;;;;;;;;4794469;28;5089955;-68
2022/01/27 12:47:03;;;;;;;2.17;1.37;;;;;;;;;;4975237;28;20238;-68
2022/01/27 12:49:36;;;;;;;1.20;0.70;;;;;;;;;;4951017;28;20508;-68
2022/01/27 12:52:08;;;;;;;2.30;1.13;;;;;;;;;;4968554;28;20238;-68
2022/01/27 12:54:35;;;;;;;3.80;1.83;;;;;;;;;;4967804;28;26992;-69
2022/01/27 12:57:03;;;;;;;2.80;1.87;;;;;;;;;;4938234;28;21030;-69
2022/01/27 12:59:31;;;;;;;3.97;2.40;;;;;;;;;;4965562;28;20467;-69
2022/01/27 13:02:06;;;;;;;2.27;1.63;;;;;;;;;;4954384;28;27623;-69
2022/01/27 13:04:34;;;;;;;2.43;1.67;;;;;;;;;;4967576;28;20230;-68
2022/01/27 13:07:01;;;;;;;4.33;2.80;;;;;;;;;;4969962;28;20498;-68
2022/01/27 13:09:35;;;;;;;6.67;3.03;;;;;;;;;;4945103;28;20456;-68
2022/01/27 13:12:09;;;;;;;4.67;2.57;;;;;;;;;;4960985;28;22357;-68
2022/01/27 13:15:15;;;;;;;4.10;2.83;;;;;;;;;;4969353;28;20250;-68
2022/01/27 13:17:57;;;;;;;7.33;2.30;;;;;;;;;;4967635;28;20454;-68
2022/01/27 13:20:31;;;;;;;7.23;2.70;;;;;;;;;;4966790;28;31456;-67
2022/01/27 13:23:04;;;;;;;3.60;2.20;;;;;;;;;;4948146;28;24799;-68
2022/01/27 13:25:37;;;;;;;5.93;2.93;;;;;;;;;;4914104;28;20826;-67
2022/01/27 13:28:20;;;;;;;6.47;2.77;;;;;;;;;;4958414;28;20243;-67
2022/01/27 13:30:49;;;;;;;5.90;3.27;;;;;;;;;;4941498;28;20819;-68
2022/01/27 13:33:18;;;;;;;5.23;3.00;;;;;;;;;;4966773;28;20455;-67
2022/01/27 13:35:46;;;;;;;6.23;3.27;;;;;;;;;;4938428;28;20224;-68
2022/01/27 13:38:20;;;;;;;5.00;3.13;;;;;;;;;;4941298;28;20250;-68
2022/01/27 13:43:45;;;;;;;11.83;4.20;;;;;;;;;;4959373;28;37414;-68
2022/01/27 13:46:58;;;;;;;5.40;3.07;;;;;;;;;;4968526;28;20228;-68
2022/01/27 13:49:32;;;;;;;8.80;3.57;;;;;;;;;;4809075;29;42565;-68
2022/01/27 13:52:00;;;;;;;9.53;4.40;;;;;;;;;;4861342;29;20249;-66
2022/01/27 13:54:29;;;;;;;8.40;3.43;;;;;;;;;;4923274;28;32903;-66
2022/01/27 13:57:03;;;;;;;10.73;3.80;;;;;;;;;;4772872;28;5088610;-67
2022/01/27 14:00:01;;;;;;;9.87;4.47;;;;;;;;;;4941729;28;20239;-68
2022/01/27 14:02:40;;;;;;;9.57;3.40;;;;;;;;;;4909952;28;20307;-67
2022/01/27 14:05:14;;;;;;;11.60;4.37;;;;;;;;;;4964736;28;20232;-67
2022/01/27 14:07:55;;;;;;;10.43;3.77;;;;;;;;;;4975160;28;20239;-67
2022/01/27 14:10:25;;;;;;;7.33;3.27;;;;;;;;;;4974261;28;20267;-67
2022/01/27 14:12:56;;;;;;;11.90;4.13;;;;;;;;;;4968336;28;21054;-67
2022/01/27 14:15:26;;;;;;;8.80;4.67;;;;;;;;;;4965769;28;20554;-66
2022/01/27 14:18:00;;;;;;;8.70;3.60;;;;;;;;;;4954264;28;20236;-67
2022/01/27 14:20:27;;;;;;;8.67;3.87;;;;;;;;;;4967836;28;20239;-65
2022/01/27 14:23:12;;;;;;;9.70;3.23;;;;;;;;;;4968373;28;31999;-65
2022/01/27 14:25:46;;;;;;;5.63;3.13;;;;;;;;;;4965136;28;20691;-68
2022/01/27 14:28:17;;;;;;;11.70;4.20;;;;;;;;;;4967416;28;22247;-69
2022/01/27 14:30:45;;;;;;;7.03;3.30;;;;;;;;;;4976382;28;20220;-67
2022/01/27 14:33:12;;;;;;;7.63;3.50;;;;;;;;;;4974786;28;20821;-68
2022/01/27 14:35:39;;;;;;;6.27;3.07;;;;;;;;;;4962158;28;20242;-67
2022/01/27 14:38:06;;;;;;;6.17;1.70;;;;;;;;;;4945951;28;20219;-67
2022/01/27 14:40:33;;;;;;;7.13;3.17;;;;;;;;;;4965108;28;21521;-67
2022/01/27 14:43:02;;;;;;;2.93;2.07;;;;;;;;;;4972234;28;20228;-68
2022/01/27 14:45:29;;;;;;;4.70;2.70;;;;;;;;;;4967963;28;46585;-67
2022/01/27 14:48:02;;;;;;;4.53;2.73;;;;;;;;;;4961221;28;20700;-67
2022/01/27 14:50:30;;;;;;;6.87;1.93;;;;;;;;;;4962860;28;31098;-66
2022/01/27 14:52:58;;;;;;;6.70;2.93;;;;;;;;;;4968134;28;20231;-67
2022/01/27 14:55:25;;;;;;;5.17;1.90;;;;;;;;;;4973007;28;20267;-67
2022/01/27 14:57:52;;;;;;;5.20;2.20;;;;;;;;;;4980623;28;20315;-68
2022/01/27 15:00:19;;;;;;;5.30;2.43;;;;;;;;;;4968558;28;20595;-67
2022/01/27 15:02:47;;;;;;;4.97;1.70;;;;;;;;;;4973736;28;20235;-69
2022/01/27 15:05:14;;;;;;;5.13;1.20;;;;;;;;;;4960954;28;20624;-68
2022/01/27 15:07:42;;;;;;;7.43;2.20;;;;;;;;;;4969615;28;20224;-68
2022/01/27 15:10:10;;;;;;;3.93;1.90;;;;;;;;;;4971568;28;20329;-69
2022/01/27 15:12:37;;;;;;;4.10;2.43;;;;;;;;;;4962614;28;20243;-67
2022/01/27 15:20:36;;;;;;;6.77;1.97;;;;;;;;;;4978707;28;20589;-68
2022/01/27 15:23:03;;;;;;;6.27;2.23;;;;;;;;;;4961266;28;21046;-70
2022/01/27 15:25:29;;;;;;;11.97;2.03;;;;;;;;;;4964622;28;20223;-68
2022/01/27 15:27:56;;;;;;;5.80;2.10;;;;;;;;;;4985111;28;20228;-67
2022/01/27 15:30:23;;;;;;;5.93;2.47;;;;;;;;;;4977350;28;24075;-68
2022/01/27 15:32:50;;;;;;;10.30;2.00;;;;;;;;;;4978662;28;20718;-67
2022/01/27 15:35:16;;;;;;;6.70;2.57;;;;;;;;;;4969955;28;20759;-67
2022/01/27 15:37:44;;;;;;;9.90;2.43;;;;;;;;;;4976908;28;20462;-67
2022/01/27 15:40:13;;;;;;;9.53;2.93;;;;;;;;;;4973984;28;20240;-67
2022/01/27 15:42:51;;;;;;;6.23;2.10;;;;;;;;;;4971745;28;20236;-66
2022/01/27 15:45:22;;;;;;;6.17;2.13;;;;;;;;;;4970601;28;20467;-67
2022/01/27 15:47:50;;;;;;;10.60;2.30;;;;;;;;;;4977601;28;20707;-67
2022/01/27 15:50:19;;;;;;;8.87;2.93;;;;;;;;;;4975030;28;20236;-66
2022/01/27 15:52:46;;;;;;;9.97;3.17;;;;;;;;;;4972209;28;20235;-66
2022/01/27 15:55:13;;;;;;;10.27;3.03;;;;;;;;;;4973126;28;20228;-66
2022/01/27 15:57:40;;;;;;;12.33;2.73;;;;;;;;;;4975369;28;20255;-67
2022/01/27 16:00:07;;;;;;;7.60;2.13;;;;;;;;;;4975441;28;20242;-66
2022/01/27 16:02:37;;;;;;;9.40;2.30;;;;;;;;;;4971839;28;20231;-66
2022/01/27 16:05:07;;;;;;;8.80;1.90;;;;;;;;;;4977330;28;20642;-66